createdAt,value
2017-07-26T00:00:25.896Z,15.30
2017-07-26T00:02:54.206Z,15.30
2017-07-26T00:05:22.521Z,15.30
2017-07-26T00:07:50.855Z,15.30
2017-07-26T00:10:19.172Z,15.30
2017-07-26T00:12:47.500Z,15.30
2017-07-26T00:15:15.041Z,15.30
2017-07-26T00:17:43.368Z,15.30
2017-07-26T00:20:11.676Z,15.30
2017-07-26T00:22:40.010Z,15.20
2017-07-26T00:25:08.320Z,15.20
2017-07-26T00:27:36.638Z,15.20
2017-07-26T00:30:04.965Z,15.30
2017-07-26T00:32:33.288Z,15.30
2017-07-26T00:35:01.617Z,15.30
2017-07-26T00:37:29.932Z,15.30
2017-07-26T00:39:58.284Z,15.30
2017-07-26T00:42:26.602Z,15.30
2017-07-26T00:44:54.950Z,15.30
2017-07-26T00:47:23.259Z,15.30
2017-07-26T00:49:51.599Z,15.30
2017-07-26T00:52:19.919Z,15.30
2017-07-26T00:54:48.252Z,15.30
2017-07-26T00:57:16.562Z,15.30
2017-07-26T00:59:44.888Z,15.30
2017-07-26T01:02:13.231Z,15.30
2017-07-26T01:04:41.555Z,15.30
2017-07-26T01:07:09.892Z,15.30
2017-07-26T01:09:38.205Z,15.30
2017-07-26T01:12:06.547Z,15.30
2017-07-26T01:14:34.861Z,15.30
2017-07-26T01:17:03.207Z,15.30
2017-07-26T01:19:31.534Z,15.30
2017-07-26T01:21:59.859Z,15.30
2017-07-26T01:24:28.201Z,15.30
2017-07-26T01:26:56.527Z,15.30
2017-07-26T01:29:24.937Z,15.30
2017-07-26T01:31:53.254Z,15.40
2017-07-26T01:34:21.591Z,15.30
2017-07-26T01:36:49.911Z,15.30
2017-07-26T01:39:18.255Z,15.30
2017-07-26T01:41:45.805Z,15.30
2017-07-26T01:44:14.156Z,15.30
2017-07-26T01:46:42.475Z,15.30
2017-07-26T01:49:10.853Z,15.30
2017-07-26T01:51:39.171Z,15.40
2017-07-26T01:54:07.484Z,15.40
2017-07-26T01:56:35.828Z,15.40
2017-07-26T01:59:04.134Z,15.40
2017-07-26T02:01:32.466Z,15.40
2017-07-26T02:04:00.780Z,15.40
2017-07-26T02:06:29.114Z,15.40
2017-07-26T02:08:57.424Z,15.40
2017-07-26T02:11:25.761Z,15.40
2017-07-26T02:13:54.087Z,15.40
2017-07-26T02:16:22.431Z,15.40
2017-07-26T02:18:50.755Z,15.40
2017-07-26T02:21:19.075Z,15.40
2017-07-26T02:23:47.408Z,15.40
2017-07-26T02:26:15.732Z,15.40
2017-07-26T02:28:44.076Z,15.40
2017-07-26T02:31:12.403Z,15.40
2017-07-26T02:33:40.737Z,15.40
2017-07-26T02:36:09.071Z,15.40
2017-07-26T02:38:37.416Z,15.40
2017-07-26T02:41:05.747Z,15.40
2017-07-26T02:43:34.095Z,15.40
2017-07-26T02:46:01.646Z,15.40
2017-07-26T02:48:29.969Z,15.50
2017-07-26T02:50:58.320Z,15.50
2017-07-26T02:53:26.635Z,15.40
2017-07-26T02:55:54.973Z,15.40
2017-07-26T02:58:23.294Z,15.50
2017-07-26T03:00:51.631Z,15.40
2017-07-26T03:03:19.183Z,15.40
2017-07-26T03:05:47.527Z,15.40
2017-07-26T03:08:15.847Z,15.40
2017-07-26T03:10:44.183Z,15.40
2017-07-26T03:13:12.503Z,15.40
2017-07-26T03:15:40.095Z,15.40
2017-07-26T03:18:08.411Z,15.40
2017-07-26T03:20:36.726Z,15.40
2017-07-26T03:23:05.067Z,15.40
2017-07-26T03:25:33.382Z,15.40
2017-07-26T03:28:01.727Z,15.40
2017-07-26T03:30:30.058Z,15.30
2017-07-26T03:32:58.390Z,15.30
2017-07-26T03:35:26.708Z,15.30
2017-07-26T03:37:55.048Z,15.30
2017-07-26T03:40:23.369Z,15.30
2017-07-26T03:42:51.708Z,15.30
2017-07-26T03:45:20.023Z,15.30
2017-07-26T03:47:48.360Z,15.30
2017-07-26T03:50:16.676Z,15.30
2017-07-26T03:52:45.020Z,15.20
2017-07-26T03:55:13.343Z,15.20
2017-07-26T03:57:41.669Z,15.20
2017-07-26T04:00:10.011Z,15.20
2017-07-26T04:02:38.331Z,15.10
2017-07-26T04:05:06.674Z,15.10
2017-07-26T04:07:35.000Z,15.10
2017-07-26T04:10:03.340Z,15.10
2017-07-26T04:12:31.664Z,15.00
2017-07-26T04:14:59.259Z,15.00
2017-07-26T04:17:27.575Z,15.00
2017-07-26T04:19:55.916Z,15.00
2017-07-26T04:22:24.231Z,15.00
2017-07-26T04:24:52.567Z,15.00
2017-07-26T04:27:20.893Z,14.90
2017-07-26T04:29:49.230Z,14.90
2017-07-26T04:32:17.550Z,14.90
2017-07-26T04:34:45.891Z,15.00
2017-07-26T04:37:14.200Z,15.00
2017-07-26T04:39:42.515Z,15.00
2017-07-26T04:42:10.860Z,15.00
2017-07-26T04:44:39.180Z,15.10
2017-07-26T04:47:07.516Z,15.20
2017-07-26T04:49:35.826Z,15.20
2017-07-26T04:52:03.394Z,15.20
2017-07-26T04:54:31.716Z,15.20
2017-07-26T04:57:00.050Z,15.30
2017-07-26T04:59:28.355Z,15.20
2017-07-26T05:01:56.692Z,15.30
2017-07-26T05:04:25.016Z,15.30
2017-07-26T05:06:53.355Z,15.50
2017-07-26T05:09:21.691Z,15.60
2017-07-26T05:11:50.053Z,15.80
2017-07-26T05:14:18.370Z,15.90
2017-07-26T05:16:46.683Z,16.00
2017-07-26T05:19:15.019Z,16.00
2017-07-26T05:21:43.328Z,16.00
2017-07-26T05:24:11.680Z,15.90
2017-07-26T05:26:39.998Z,16.00
2017-07-26T05:29:08.336Z,16.10
2017-07-26T05:31:36.648Z,16.20
2017-07-26T05:34:04.983Z,16.50
2017-07-26T05:36:33.295Z,16.70
2017-07-26T05:39:01.643Z,16.80
2017-07-26T05:41:29.966Z,16.80
2017-07-26T05:43:58.303Z,16.80
2017-07-26T05:46:26.651Z,16.80
2017-07-26T05:48:55.012Z,16.70
2017-07-26T05:51:23.328Z,16.70
2017-07-26T05:53:51.654Z,16.60
2017-07-26T05:56:19.989Z,16.70
2017-07-26T05:58:48.344Z,16.80
2017-07-26T06:01:16.680Z,17.00
2017-07-26T06:03:45.011Z,17.10
2017-07-26T06:06:13.355Z,17.30
2017-07-26T06:08:41.664Z,17.50
2017-07-26T06:11:09.994Z,17.60
2017-07-26T06:13:38.315Z,17.70
2017-07-26T06:16:06.647Z,17.90
2017-07-26T06:18:34.963Z,18.10
2017-07-26T06:21:03.319Z,18.00
2017-07-26T06:23:31.632Z,17.80
2017-07-26T06:25:59.940Z,17.70
2017-07-26T06:28:28.275Z,17.60
2017-07-26T06:30:56.588Z,17.60
2017-07-26T06:33:24.928Z,17.60
2017-07-26T06:35:53.244Z,17.50
2017-07-26T06:38:21.594Z,17.60
2017-07-26T06:40:49.911Z,17.80
2017-07-26T06:43:18.247Z,17.90
2017-07-26T06:45:46.555Z,18.00
2017-07-26T06:48:14.915Z,18.10
2017-07-26T06:50:43.224Z,18.20
2017-07-26T06:53:11.534Z,18.10
2017-07-26T06:55:39.859Z,18.00
2017-07-26T06:58:08.187Z,17.90
2017-07-26T07:00:36.518Z,17.90
2017-07-26T07:03:04.845Z,17.90
2017-07-26T07:05:33.170Z,18.00
2017-07-26T07:08:01.480Z,18.20
2017-07-26T07:10:29.807Z,18.50
2017-07-26T07:12:58.120Z,18.80
2017-07-26T07:15:26.459Z,19.10
2017-07-26T07:17:54.774Z,19.20
2017-07-26T07:20:23.089Z,19.30
2017-07-26T07:22:51.427Z,19.60
2017-07-26T07:25:19.743Z,19.80
2017-07-26T07:27:48.080Z,19.90
2017-07-26T07:30:16.401Z,20.10
2017-07-26T07:32:43.963Z,20.10
2017-07-26T07:35:12.279Z,20.30
2017-07-26T07:37:40.613Z,20.50
2017-07-26T07:40:08.924Z,20.50
2017-07-26T07:42:37.256Z,20.60
2017-07-26T07:45:05.565Z,20.80
2017-07-26T07:47:33.867Z,21.00
2017-07-26T07:50:02.216Z,21.00
2017-07-26T07:52:30.534Z,21.10
2017-07-26T07:54:58.871Z,21.00
2017-07-26T07:57:27.181Z,20.80
2017-07-26T07:59:55.519Z,20.90
2017-07-26T08:02:23.841Z,20.80
2017-07-26T08:04:52.173Z,20.70
2017-07-26T08:07:20.491Z,20.70
2017-07-26T08:09:48.821Z,20.80
2017-07-26T08:12:17.126Z,20.70
2017-07-26T08:14:45.476Z,20.70
2017-07-26T08:17:13.782Z,20.70
2017-07-26T08:19:41.330Z,20.70
2017-07-26T08:22:09.663Z,20.50
2017-07-26T08:24:37.976Z,20.40
2017-07-26T08:27:06.309Z,20.60
2017-07-26T08:29:34.622Z,20.70
2017-07-26T08:32:02.948Z,20.70
2017-07-26T08:34:31.261Z,20.70
2017-07-26T08:36:59.591Z,20.50
2017-07-26T08:39:27.131Z,20.50
2017-07-26T08:41:55.464Z,20.80
2017-07-26T08:44:23.775Z,20.90
2017-07-26T08:46:52.100Z,20.90
2017-07-26T08:49:19.934Z,20.80
2017-07-26T08:51:48.273Z,20.60
2017-07-26T08:54:16.609Z,20.30
2017-07-26T08:56:44.919Z,20.00
2017-07-26T08:59:13.247Z,19.90
2017-07-26T09:01:41.555Z,19.70
2017-07-26T09:04:09.887Z,19.50
2017-07-26T09:06:38.191Z,19.40
2017-07-26T09:09:06.520Z,19.30
2017-07-26T09:11:34.894Z,19.20
2017-07-26T09:14:03.223Z,19.20
2017-07-26T09:16:31.599Z,19.20
2017-07-26T09:19:00.016Z,19.20
2017-07-26T09:21:28.366Z,19.40
2017-07-26T09:23:56.699Z,19.70
2017-07-26T09:26:25.043Z,20.10
2017-07-26T09:28:53.348Z,20.40
2017-07-26T09:31:21.688Z,20.70
2017-07-26T09:33:50.007Z,20.80
2017-07-26T09:36:18.336Z,20.80
2017-07-26T09:38:46.639Z,20.70
2017-07-26T09:41:14.963Z,20.70
2017-07-26T09:43:43.268Z,20.60
2017-07-26T09:46:11.596Z,20.50
2017-07-26T09:48:39.904Z,20.40
2017-07-26T09:51:08.245Z,20.20
2017-07-26T09:53:36.554Z,20.10
2017-07-26T09:56:04.884Z,19.90
2017-07-26T09:58:33.183Z,19.70
2017-07-26T10:01:01.518Z,19.60
2017-07-26T10:03:29.823Z,19.60
2017-07-26T10:05:58.151Z,19.60
2017-07-26T10:08:26.465Z,19.70
2017-07-26T10:10:54.804Z,19.90
2017-07-26T10:13:23.112Z,20.20
2017-07-26T10:15:51.419Z,20.40
2017-07-26T10:18:19.749Z,20.70
2017-07-26T10:20:48.065Z,21.00
2017-07-26T10:23:16.402Z,21.30
2017-07-26T10:25:44.706Z,21.60
2017-07-26T10:28:13.035Z,21.80
2017-07-26T10:30:40.885Z,21.90
2017-07-26T10:33:09.220Z,22.30
2017-07-26T10:35:37.527Z,22.50
2017-07-26T10:38:05.858Z,22.60
2017-07-26T10:40:34.175Z,22.40
2017-07-26T10:43:01.832Z,22.40
2017-07-26T10:45:30.140Z,22.00
2017-07-26T10:47:58.496Z,22.20
2017-07-26T10:50:26.809Z,22.50
2017-07-26T10:52:55.121Z,22.80
2017-07-26T10:55:23.452Z,23.10
2017-07-26T10:57:51.760Z,23.20
2017-07-26T11:00:20.088Z,23.50
2017-07-26T11:02:48.395Z,23.70
2017-07-26T11:05:16.723Z,23.60
2017-07-26T11:07:45.048Z,23.40
2017-07-26T11:10:13.382Z,23.20
2017-07-26T11:12:41.687Z,23.30
2017-07-26T11:15:10.033Z,23.40
2017-07-26T11:17:38.339Z,23.50
2017-07-26T11:20:06.687Z,23.60
2017-07-26T11:22:34.999Z,23.70
2017-07-26T11:25:03.347Z,23.80
2017-07-26T11:27:31.652Z,23.60
2017-07-26T11:30:00.004Z,23.60
2017-07-26T11:32:28.355Z,23.70
2017-07-26T11:34:56.675Z,23.80
2017-07-26T11:37:25.003Z,24.10
2017-07-26T11:39:53.306Z,24.20
2017-07-26T11:42:21.640Z,24.00
2017-07-26T11:44:49.945Z,24.10
2017-07-26T11:47:18.280Z,24.20
2017-07-26T11:49:46.595Z,24.40
2017-07-26T11:52:14.915Z,24.40
2017-07-26T11:54:43.256Z,24.50
2017-07-26T11:57:11.149Z,24.50
2017-07-26T11:59:39.465Z,24.30
2017-07-26T12:02:07.799Z,24.40
2017-07-26T12:04:36.112Z,24.60
2017-07-26T12:07:03.988Z,24.80
2017-07-26T12:09:32.303Z,25.00
2017-07-26T12:12:00.608Z,25.30
2017-07-26T12:14:28.936Z,25.40
2017-07-26T12:16:57.245Z,25.60
2017-07-26T12:19:25.580Z,25.50
2017-07-26T12:21:53.885Z,25.30
2017-07-26T12:24:22.237Z,25.10
2017-07-26T12:26:50.542Z,25.10
2017-07-26T12:29:18.874Z,25.30
2017-07-26T12:31:47.184Z,25.60
2017-07-26T12:34:14.754Z,25.60
2017-07-26T12:36:43.064Z,25.90
2017-07-26T12:39:11.406Z,25.50
2017-07-26T12:41:39.717Z,25.00
2017-07-26T12:44:08.051Z,24.40
2017-07-26T12:46:36.357Z,24.50
2017-07-26T12:49:04.687Z,24.70
2017-07-26T12:51:32.991Z,24.70
2017-07-26T12:54:01.344Z,24.50
2017-07-26T12:56:29.661Z,24.20
2017-07-26T12:58:57.993Z,24.50
2017-07-26T13:01:26.313Z,24.90
2017-07-26T13:03:54.672Z,25.40
2017-07-26T13:06:22.987Z,25.40
2017-07-26T13:08:51.298Z,25.40
2017-07-26T13:11:19.641Z,25.40
2017-07-26T13:13:47.952Z,25.70
2017-07-26T13:16:16.289Z,25.70
2017-07-26T13:18:44.597Z,25.60
2017-07-26T13:21:12.922Z,25.30
2017-07-26T13:23:41.226Z,25.50
2017-07-26T13:26:09.545Z,25.80
2017-07-26T13:28:37.861Z,25.80
2017-07-26T13:31:06.193Z,25.80
2017-07-26T13:33:34.496Z,25.40
2017-07-26T13:36:02.855Z,25.30
2017-07-26T13:38:31.164Z,25.10
2017-07-26T13:40:59.482Z,25.00
2017-07-26T13:43:27.821Z,24.90
2017-07-26T13:45:56.132Z,25.00
2017-07-26T13:48:24.483Z,25.10
2017-07-26T13:50:52.793Z,25.10
2017-07-26T13:53:21.153Z,24.90
2017-07-26T13:55:49.473Z,24.80
2017-07-26T13:58:17.805Z,25.00
2017-07-26T14:00:46.119Z,25.00
2017-07-26T14:03:14.459Z,25.00
2017-07-26T14:05:42.767Z,24.90
2017-07-26T14:08:11.069Z,25.30
2017-07-26T14:10:39.403Z,25.60
2017-07-26T14:13:07.730Z,26.10
2017-07-26T14:15:36.063Z,26.30
2017-07-26T14:18:04.388Z,26.50
2017-07-26T14:20:32.129Z,26.50
2017-07-26T14:23:00.437Z,26.50
2017-07-26T14:25:28.770Z,26.60
2017-07-26T14:27:57.080Z,26.80
2017-07-26T14:30:25.425Z,27.30
2017-07-26T14:32:53.732Z,27.60
2017-07-26T14:35:22.040Z,27.70
2017-07-26T14:37:50.379Z,27.90
2017-07-26T14:40:18.697Z,27.90
2017-07-26T14:42:45.812Z,27.90
2017-07-26T14:45:14.195Z,28.00
2017-07-26T14:47:42.523Z,28.10
2017-07-26T14:50:10.847Z,28.10
2017-07-26T14:52:39.180Z,27.90
2017-07-26T14:55:07.498Z,27.40
2017-07-26T14:57:35.829Z,26.80
2017-07-26T15:00:04.144Z,26.40
2017-07-26T15:02:32.577Z,26.10
2017-07-26T15:05:00.961Z,26.10
2017-07-26T15:07:29.273Z,26.10
2017-07-26T15:09:57.603Z,26.20
2017-07-26T15:12:25.910Z,26.00
2017-07-26T15:14:53.479Z,26.00
2017-07-26T15:17:21.797Z,26.00
2017-07-26T15:19:50.130Z,25.90
2017-07-26T15:22:18.438Z,25.70
2017-07-26T15:24:46.773Z,25.50
2017-07-26T15:27:15.088Z,25.50
2017-07-26T15:29:43.425Z,25.70
2017-07-26T15:32:11.737Z,26.10
2017-07-26T15:34:40.067Z,26.30
2017-07-26T15:37:08.375Z,26.20
2017-07-26T15:39:36.728Z,25.90
2017-07-26T15:42:05.039Z,25.70
2017-07-26T15:44:33.371Z,25.70
2017-07-26T15:47:01.719Z,25.90
2017-07-26T15:49:30.032Z,26.00
2017-07-26T15:51:58.362Z,26.00
2017-07-26T15:54:26.742Z,25.70
2017-07-26T15:56:55.071Z,25.50
2017-07-26T15:59:23.395Z,25.40
2017-07-26T16:01:51.728Z,25.20
2017-07-26T16:04:20.055Z,25.10
2017-07-26T16:06:48.385Z,25.00
2017-07-26T16:09:16.724Z,25.10
2017-07-26T16:11:45.063Z,25.10
2017-07-26T16:14:13.368Z,25.30
2017-07-26T16:16:41.708Z,25.40
2017-07-26T16:19:10.015Z,25.60
2017-07-26T16:21:38.327Z,25.60
2017-07-26T16:24:06.655Z,25.50
2017-07-26T16:26:34.967Z,25.50
2017-07-26T16:29:03.296Z,25.50
2017-07-26T16:31:31.616Z,25.70
2017-07-26T16:33:59.957Z,25.70
2017-07-26T16:36:28.272Z,25.70
2017-07-26T16:38:56.624Z,25.70
2017-07-26T16:41:24.957Z,25.90
2017-07-26T16:43:53.312Z,26.10
2017-07-26T16:46:21.625Z,26.30
2017-07-26T16:48:50.974Z,26.30
2017-07-26T16:51:18.547Z,26.30
2017-07-26T16:53:46.851Z,25.80
2017-07-26T16:56:15.188Z,25.50
2017-07-26T16:58:43.509Z,25.00
2017-07-26T17:01:11.845Z,24.70
2017-07-26T17:03:40.162Z,24.40
2017-07-26T17:06:08.488Z,24.40
2017-07-26T17:08:36.808Z,24.30
2017-07-26T17:11:05.170Z,24.20
2017-07-26T17:13:33.490Z,24.30
2017-07-26T17:16:01.832Z,24.50
2017-07-26T17:18:30.143Z,24.70
2017-07-26T17:20:58.482Z,24.70
2017-07-26T17:23:26.792Z,24.60
2017-07-26T17:25:55.099Z,24.50
2017-07-26T17:28:23.436Z,24.40
2017-07-26T17:30:51.749Z,24.30
2017-07-26T17:33:20.076Z,24.30
2017-07-26T17:35:48.383Z,24.20
2017-07-26T17:38:16.726Z,24.10
2017-07-26T17:40:45.046Z,23.90
2017-07-26T17:43:13.380Z,23.80
2017-07-26T17:45:41.690Z,23.60
2017-07-26T17:48:10.023Z,23.50
2017-07-26T17:50:38.331Z,23.50
2017-07-26T17:53:06.675Z,23.40
2017-07-26T17:55:34.989Z,23.40
2017-07-26T17:58:03.331Z,23.40
2017-07-26T18:00:31.647Z,23.30
2017-07-26T18:02:59.975Z,23.30
2017-07-26T18:05:28.308Z,23.30
2017-07-26T18:07:56.630Z,23.30
2017-07-26T18:10:24.968Z,23.30
2017-07-26T18:12:53.408Z,23.30
2017-07-26T18:15:21.744Z,23.20
2017-07-26T18:17:50.059Z,23.10
2017-07-26T18:20:18.393Z,23.10
2017-07-26T18:22:46.700Z,23.00
2017-07-26T18:25:15.227Z,22.90
2017-07-26T18:27:43.580Z,22.80
2017-07-26T18:30:11.986Z,22.60
2017-07-26T18:32:40.379Z,22.60
2017-07-26T18:35:08.761Z,22.40
2017-07-26T18:37:37.185Z,22.30
2017-07-26T18:40:05.527Z,22.20
2017-07-26T18:42:33.907Z,22.10
2017-07-26T18:45:02.460Z,22.00
2017-07-26T18:47:30.935Z,21.90
2017-07-26T18:49:59.238Z,21.80
2017-07-26T18:52:27.608Z,21.80
2017-07-26T18:54:55.947Z,21.70
2017-07-26T18:57:24.292Z,21.60
2017-07-26T18:59:52.604Z,21.50
2017-07-26T19:02:20.945Z,21.40
2017-07-26T19:04:49.263Z,21.30
2017-07-26T19:07:17.607Z,21.20
2017-07-26T19:09:45.940Z,21.10
2017-07-26T19:12:14.288Z,21.00
2017-07-26T19:14:42.619Z,21.00
2017-07-26T19:17:10.926Z,20.90
2017-07-26T19:19:39.259Z,20.80
2017-07-26T19:22:07.600Z,20.80
2017-07-26T19:24:35.944Z,20.70
2017-07-26T19:27:04.255Z,20.70
2017-07-26T19:29:32.588Z,20.60
2017-07-26T19:32:00.916Z,20.60
2017-07-26T19:34:29.248Z,20.50
2017-07-26T19:36:57.559Z,20.50
2017-07-26T19:39:25.893Z,20.40
2017-07-26T19:41:54.200Z,20.30
2017-07-26T19:44:22.543Z,20.30
2017-07-26T19:46:50.861Z,20.30
2017-07-26T19:49:19.181Z,20.30
2017-07-26T19:51:47.512Z,20.20
2017-07-26T19:54:15.828Z,20.20
2017-07-26T19:56:44.159Z,20.20
2017-07-26T19:59:12.475Z,20.20
2017-07-26T20:01:40.805Z,20.20
2017-07-26T20:04:09.115Z,20.20
2017-07-26T20:06:37.455Z,20.20
2017-07-26T20:09:05.768Z,20.20
2017-07-26T20:11:34.106Z,20.10
2017-07-26T20:14:02.416Z,20.10
2017-07-26T20:16:30.768Z,20.10
2017-07-26T20:18:59.075Z,20.00
2017-07-26T20:21:27.379Z,20.00
2017-07-26T20:23:55.707Z,20.00
2017-07-26T20:26:24.018Z,20.00
2017-07-26T20:28:52.347Z,20.00
2017-07-26T20:31:20.648Z,20.10
2017-07-26T20:33:48.984Z,20.10
2017-07-26T20:36:17.288Z,20.00
2017-07-26T20:38:45.619Z,20.00
2017-07-26T20:41:13.163Z,20.10
2017-07-26T20:43:41.498Z,20.00
2017-07-26T20:46:09.812Z,20.10
2017-07-26T20:48:38.148Z,20.10
2017-07-26T20:51:06.467Z,20.10
2017-07-26T20:53:34.799Z,20.10
2017-07-26T20:56:03.101Z,20.10
2017-07-26T20:58:31.425Z,20.10
2017-07-26T21:00:59.795Z,20.10
2017-07-26T21:03:28.108Z,20.10
2017-07-26T21:05:56.443Z,20.10
2017-07-26T21:08:24.751Z,20.10
2017-07-26T21:10:53.089Z,20.10
2017-07-26T21:13:21.407Z,20.00
2017-07-26T21:15:49.745Z,20.00
2017-07-26T21:18:18.062Z,20.00
2017-07-26T21:20:46.400Z,20.00
2017-07-26T21:23:14.722Z,19.90
2017-07-26T21:25:43.064Z,19.90
2017-07-26T21:28:11.386Z,19.90
2017-07-26T21:30:39.703Z,19.90
2017-07-26T21:33:08.040Z,19.90
2017-07-26T21:35:36.360Z,19.90
2017-07-26T21:38:04.699Z,19.80
2017-07-26T21:40:33.023Z,19.80
2017-07-26T21:43:01.360Z,19.80
2017-07-26T21:45:29.672Z,19.80
2017-07-26T21:47:58.014Z,19.80
2017-07-26T21:50:26.332Z,19.80
2017-07-26T21:52:54.664Z,19.80
2017-07-26T21:55:22.976Z,19.70
2017-07-26T21:57:51.308Z,19.70
2017-07-26T22:00:19.629Z,19.70
2017-07-26T22:02:47.941Z,19.60
2017-07-26T22:05:16.282Z,19.60
2017-07-26T22:07:44.591Z,19.60
2017-07-26T22:10:12.920Z,19.50
2017-07-26T22:12:41.232Z,19.60
2017-07-26T22:15:09.579Z,19.60
2017-07-26T22:17:37.886Z,19.60
2017-07-26T22:20:06.221Z,19.50
2017-07-26T22:22:34.530Z,19.50
2017-07-26T22:25:02.869Z,19.50
2017-07-26T22:27:31.181Z,19.50
2017-07-26T22:29:59.517Z,19.50
2017-07-26T22:32:27.827Z,19.50
2017-07-26T22:34:56.165Z,19.50
2017-07-26T22:37:24.475Z,19.40
2017-07-26T22:39:52.820Z,19.30
2017-07-26T22:42:21.131Z,19.30
2017-07-26T22:44:49.451Z,19.20
2017-07-26T22:47:17.788Z,19.20
2017-07-26T22:49:46.106Z,19.10
2017-07-26T22:52:14.532Z,19.10
2017-07-26T22:54:42.847Z,19.00
2017-07-26T22:57:11.198Z,19.00
2017-07-26T22:59:39.511Z,18.90
2017-07-26T23:02:07.853Z,18.90
2017-07-26T23:04:36.170Z,18.80
2017-07-26T23:07:04.503Z,18.80
2017-07-26T23:09:32.821Z,18.80
2017-07-26T23:12:01.164Z,18.80
2017-07-26T23:14:29.477Z,18.80
2017-07-26T23:16:57.786Z,18.80
2017-07-26T23:19:26.116Z,18.80
2017-07-26T23:21:54.423Z,18.70
2017-07-26T23:24:22.750Z,18.70
2017-07-26T23:26:51.072Z,18.70
2017-07-26T23:29:19.402Z,18.70
2017-07-26T23:31:47.715Z,18.70
2017-07-26T23:34:16.049Z,18.70
2017-07-26T23:36:44.357Z,18.70
2017-07-26T23:39:12.682Z,18.70
2017-07-26T23:41:40.987Z,18.70
2017-07-26T23:44:09.329Z,18.70
2017-07-26T23:46:37.631Z,18.60
2017-07-26T23:49:05.936Z,18.70
2017-07-26T23:51:34.261Z,18.60
2017-07-26T23:54:01.812Z,18.60
2017-07-26T23:56:30.148Z,18.60
2017-07-26T23:58:58.446Z,18.60
